Time;durP1;ratioP1;P1;durP2;ratioP2;P2;SDS_P1;SDS_P2;PMS_P1;PMS_P2;Temp;Humidity;BMP_temperature;BMP_pressure;BME280_temperature;BME280_humidity;BME280_pressure;Samples;Min_cycle;Max_cycle;Signal;HPM_P1;HPM_P2
2024/03/03 00:02:13;;;;;;;40.00;17.25;;;10.20;99.90;;;;;;5030997;28;20036;-88
2024/03/03 00:04:39;;;;;;;45.78;17.65;;;10.20;99.90;;;;;;5027359;28;20048;-89
2024/03/03 00:07:05;;;;;;;41.83;17.80;;;10.20;99.90;;;;;;5024401;28;20068;-89
2024/03/03 00:09:32;;;;;;;40.30;16.80;;;10.20;99.90;;;;;;5030838;28;20018;-88
2024/03/03 00:11:58;;;;;;;44.20;18.60;;;10.20;99.90;;;;;;5030753;28;20053;-89
2024/03/03 00:14:23;;;;;;;37.90;17.42;;;10.20;99.90;;;;;;5029435;28;20503;-89
2024/03/03 00:16:49;;;;;;;44.97;18.77;;;10.20;99.90;;;;;;5016967;28;20025;-88
2024/03/03 00:19:14;;;;;;;38.15;18.33;;;10.20;99.90;;;;;;5027223;28;20052;-89
2024/03/03 00:21:40;;;;;;;43.55;19.00;;;10.20;99.90;;;;;;5029268;28;20020;-89
2024/03/03 00:24:06;;;;;;;39.15;15.88;;;10.20;99.90;;;;;;5030790;28;20029;-89
2024/03/03 00:26:32;;;;;;;38.80;17.75;;;10.20;99.90;;;;;;5031805;28;20022;-89
2024/03/03 00:28:58;;;;;;;41.35;17.90;;;10.20;99.90;;;;;;5026783;28;20839;-88
2024/03/03 00:31:24;;;;;;;43.40;17.92;;;10.20;99.90;;;;;;5022973;28;20021;-89
2024/03/03 00:33:49;;;;;;;46.33;19.02;;;10.20;99.90;;;;;;5021484;28;20388;-89
2024/03/03 00:36:15;;;;;;;37.30;18.88;;;10.20;99.90;;;;;;5026575;28;20060;-89
2024/03/03 00:38:41;;;;;;;40.30;16.83;;;10.20;99.90;;;;;;5030161;28;20021;-89
2024/03/03 00:41:06;;;;;;;41.88;17.98;;;10.20;99.90;;;;;;5033441;28;20026;-89
2024/03/03 00:43:32;;;;;;;46.58;19.63;;;10.20;99.90;;;;;;5030940;28;20099;-89
2024/03/03 00:45:58;;;;;;;41.85;18.52;;;10.20;99.90;;;;;;5030784;28;20492;-89
2024/03/03 00:48:24;;;;;;;43.00;19.17;;;10.20;99.90;;;;;;5031847;28;20028;-88
2024/03/03 00:50:50;;;;;;;50.38;18.63;;;10.20;99.90;;;;;;5023527;28;20032;-88
2024/03/03 00:53:15;;;;;;;45.88;18.25;;;10.20;99.90;;;;;;5021811;28;20028;-89
2024/03/03 00:55:47;;;;;;;42.10;18.67;;;10.20;99.90;;;;;;5027325;28;20774;-89
2024/03/03 00:58:14;;;;;;;41.30;16.92;;;10.20;99.90;;;;;;5030864;28;20025;-89
2024/03/03 01:00:40;;;;;;;45.63;18.15;;;10.20;99.90;;;;;;5026968;28;20104;-89
2024/03/03 01:03:06;;;;;;;40.47;17.48;;;10.20;99.90;;;;;;5026691;28;20110;-89
2024/03/03 01:05:32;;;;;;;39.83;16.98;;;10.20;99.90;;;;;;5033520;28;20068;-89
2024/03/03 01:07:57;;;;;;;36.22;18.02;;;10.20;99.90;;;;;;5031972;28;20025;-89
2024/03/03 01:10:23;;;;;;;44.08;17.88;;;10.20;99.90;;;;;;5030583;28;20472;-89
2024/03/03 01:12:48;;;;;;;42.28;17.90;;;10.20;99.90;;;;;;5033915;28;20057;-88
2024/03/03 01:15:14;;;;;;;34.13;16.30;;;10.20;99.90;;;;;;5029009;28;20623;-89
2024/03/03 01:17:40;;;;;;;44.60;18.67;;;10.20;99.90;;;;;;5034369;28;20029;-89
2024/03/03 01:20:06;;;;;;;43.47;17.38;;;10.20;99.90;;;;;;5033850;28;20029;-89
2024/03/03 01:22:32;;;;;;;43.75;18.42;;;10.20;99.90;;;;;;5027771;28;20017;-88
2024/03/03 01:24:58;;;;;;;43.10;18.85;;;10.20;99.90;;;;;;5034624;28;20104;-89
2024/03/03 01:27:24;;;;;;;46.65;19.30;;;10.20;99.90;;;;;;5033431;28;20456;-89
2024/03/03 01:29:50;;;;;;;50.08;17.85;;;10.20;99.90;;;;;;5030119;28;20033;-89
2024/03/03 01:32:16;;;;;;;50.55;18.52;;;10.20;99.90;;;;;;5028303;28;20430;-89
2024/03/03 01:34:42;;;;;;;42.53;17.65;;;10.20;99.90;;;;;;5033340;28;20021;-88
2024/03/03 01:37:08;;;;;;;45.95;17.88;;;10.20;99.90;;;;;;5031593;28;20071;-89
2024/03/03 01:39:36;;;;;;;43.75;19.42;;;10.20;99.90;;;;;;5029512;28;20364;-90
2024/03/03 01:42:02;;;;;;;47.50;19.70;;;10.20;99.90;;;;;;5026132;28;20075;-89
2024/03/03 01:44:27;;;;;;;47.97;18.52;;;10.20;99.90;;;;;;5032963;28;20034;-89
2024/03/03 01:46:54;;;;;;;42.40;17.83;;;10.20;99.90;;;;;;5024481;28;20092;-89
2024/03/03 01:49:20;;;;;;;47.05;17.70;;;10.20;99.90;;;;;;5044250;28;20075;-89
2024/03/03 01:51:47;;;;;;;45.75;18.13;;;10.20;99.90;;;;;;5044971;28;20025;-88
2024/03/03 01:54:13;;;;;;;48.22;20.42;;;10.20;99.90;;;;;;5032791;28;20069;-89
2024/03/03 01:56:40;;;;;;;40.13;17.70;;;10.20;99.90;;;;;;5022080;28;20072;-89
2024/03/03 01:59:08;;;;;;;49.42;20.42;;;10.20;99.90;;;;;;5015412;28;20021;-89
2024/03/03 02:01:34;;;;;;;42.53;18.05;;;10.20;99.90;;;;;;5022292;28;20021;-88
2024/03/03 02:04:00;;;;;;;41.42;17.15;;;10.20;99.90;;;;;;5032696;28;20025;-89
2024/03/03 02:06:30;;;;;;;53.15;19.60;;;10.20;99.90;;;;;;5032805;28;20021;-88
2024/03/03 02:08:57;;;;;;;47.65;19.40;;;10.10;99.90;;;;;;5033950;28;20144;-89
2024/03/03 02:11:23;;;;;;;44.38;18.55;;;10.10;99.90;;;;;;5032613;28;20030;-89
2024/03/03 02:13:49;;;;;;;42.38;17.23;;;10.20;99.90;;;;;;5025536;28;20037;-90
2024/03/03 02:16:15;;;;;;;49.15;19.75;;;10.20;99.90;;;;;;5023137;28;20026;-88
2024/03/03 02:18:40;;;;;;;48.28;20.23;;;10.10;99.90;;;;;;5023909;28;20030;-89
2024/03/03 02:21:06;;;;;;;44.85;19.80;;;10.20;99.90;;;;;;5032617;28;20056;-88
2024/03/03 02:23:31;;;;;;;47.20;19.83;;;10.20;99.90;;;;;;5032444;28;20041;-89
2024/03/03 02:25:57;;;;;;;44.65;18.95;;;10.20;99.90;;;;;;5032164;28;20022;-89
2024/03/03 02:28:25;;;;;;;48.13;19.35;;;10.20;99.90;;;;;;5029806;28;20036;-89
2024/03/03 02:30:51;;;;;;;46.15;19.35;;;10.20;99.90;;;;;;5032601;28;20021;-89
2024/03/03 02:33:16;;;;;;;45.92;18.40;;;10.20;99.90;;;;;;5031988;28;20025;-89
2024/03/03 02:35:42;;;;;;;43.80;20.33;;;10.20;99.90;;;;;;5028836;28;20036;-89
2024/03/03 02:38:07;;;;;;;44.17;18.13;;;10.20;99.90;;;;;;5019064;28;20026;-89
2024/03/03 02:40:33;;;;;;;46.90;18.90;;;10.20;99.90;;;;;;5032142;28;20048;-89
2024/03/03 02:43:00;;;;;;;52.15;19.27;;;10.20;99.90;;;;;;5032410;28;20395;-89
2024/03/03 02:45:26;;;;;;;42.17;19.85;;;10.20;99.90;;;;;;5040461;28;20495;-88
2024/03/03 02:47:53;;;;;;;42.08;18.45;;;10.10;99.90;;;;;;5028728;28;20040;-88
2024/03/03 02:50:20;;;;;;;42.95;18.73;;;10.10;99.90;;;;;;5032191;28;20028;-88
2024/03/03 02:52:46;;;;;;;48.45;19.88;;;10.20;99.90;;;;;;5031140;28;20037;-88
2024/03/03 02:55:11;;;;;;;49.00;19.55;;;10.20;99.90;;;;;;5031954;28;20044;-88
2024/03/03 02:57:37;;;;;;;51.13;20.60;;;10.20;99.90;;;;;;5031749;28;20021;-88
2024/03/03 03:00:03;;;;;;;43.45;18.25;;;10.10;99.90;;;;;;5028547;28;20025;-88
2024/03/03 03:02:28;;;;;;;49.63;19.50;;;10.20;99.90;;;;;;5028390;28;20029;-88
2024/03/03 03:04:56;;;;;;;44.08;19.00;;;10.20;99.90;;;;;;5030177;28;20053;-88
2024/03/03 03:07:22;;;;;;;49.53;20.85;;;10.10;99.90;;;;;;5021401;28;20092;-91
2024/03/03 03:09:47;;;;;;;39.83;17.70;;;10.20;99.90;;;;;;5033743;28;20017;-90
2024/03/03 03:12:13;;;;;;;43.95;19.05;;;10.20;99.90;;;;;;5028280;28;20761;-89
2024/03/03 03:14:39;;;;;;;49.17;18.80;;;10.10;99.90;;;;;;5034221;28;20025;-89
2024/03/03 03:17:04;;;;;;;49.03;20.38;;;10.10;99.90;;;;;;5034383;28;20009;-90
2024/03/03 03:19:32;;;;;;;43.88;20.98;;;10.10;99.90;;;;;;5033368;28;20013;-90
2024/03/03 03:22:01;;;;;;;53.13;20.48;;;10.10;99.90;;;;;;5035009;28;20025;-90
2024/03/03 03:24:26;;;;;;;51.78;20.40;;;10.10;99.90;;;;;;5034572;28;20059;-91
2024/03/03 03:26:52;;;;;;;47.97;18.95;;;10.10;99.90;;;;;;5030887;28;20026;-90
2024/03/03 03:29:18;;;;;;;52.35;20.83;;;10.10;99.90;;;;;;5028346;28;20022;-90
2024/03/03 03:31:44;;;;;;;49.63;20.15;;;10.10;99.90;;;;;;5031370;28;20371;-90
2024/03/03 03:34:10;;;;;;;44.80;18.45;;;10.10;99.90;;;;;;5031421;28;20014;-90
2024/03/03 03:36:36;;;;;;;46.45;18.88;;;10.10;99.90;;;;;;5033286;28;20132;-91
2024/03/03 03:39:10;;;;;;;44.60;19.33;;;10.10;99.90;;;;;;5033419;28;20029;-90
2024/03/03 03:41:43;;;;;;;45.17;18.77;;;10.10;99.90;;;;;;5027600;28;20014;-90
2024/03/03 03:44:09;;;;;;;39.65;18.50;;;10.20;99.90;;;;;;5033460;28;20427;-91
2024/03/03 03:46:35;;;;;;;49.60;20.40;;;10.20;99.90;;;;;;5033585;28;20056;-90
2024/03/03 03:49:01;;;;;;;49.25;20.00;;;10.20;99.90;;;;;;5029812;28;20041;-90
2024/03/03 03:51:26;;;;;;;49.80;19.33;;;10.10;99.90;;;;;;5034008;28;20017;-90
2024/03/03 03:53:52;;;;;;;47.00;19.40;;;10.10;99.90;;;;;;5029215;28;20486;-88
2024/03/03 03:56:17;;;;;;;47.83;19.55;;;10.10;99.90;;;;;;5040854;28;20039;-89
2024/03/03 03:58:43;;;;;;;53.33;20.08;;;10.20;99.90;;;;;;5032928;28;20021;-89
2024/03/03 04:01:08;;;;;;;58.35;19.20;;;10.20;99.90;;;;;;5030068;28;20099;-89
2024/03/03 04:03:34;;;;;;;51.45;21.05;;;10.10;99.90;;;;;;5026572;28;20054;-89
2024/03/03 04:05:59;;;;;;;49.60;20.08;;;10.10;99.90;;;;;;5029512;28;20049;-89
2024/03/03 04:08:25;;;;;;;44.65;19.88;;;10.10;99.90;;;;;;5023710;28;20068;-90
2024/03/03 04:10:50;;;;;;;45.50;19.20;;;10.10;99.90;;;;;;5033164;28;20028;-89
2024/03/03 04:13:16;;;;;;;49.38;19.35;;;10.10;99.90;;;;;;5026912;28;20024;-90
2024/03/03 04:15:42;;;;;;;44.30;19.67;;;10.10;99.90;;;;;;5029574;28;20028;-89
2024/03/03 04:18:07;;;;;;;48.08;19.95;;;10.10;99.90;;;;;;5025259;28;20022;-91
2024/03/03 04:20:33;;;;;;;49.55;20.35;;;10.10;99.90;;;;;;5037535;28;20079;-90
2024/03/03 04:22:58;;;;;;;46.88;20.25;;;10.10;99.90;;;;;;5032974;28;20022;-90
2024/03/03 04:25:24;;;;;;;51.45;20.08;;;10.10;99.90;;;;;;5036738;28;20075;-89
2024/03/03 04:27:49;;;;;;;60.28;21.17;;;10.10;99.90;;;;;;5031433;28;20060;-89
2024/03/03 04:30:15;;;;;;;48.78;19.80;;;10.10;99.90;;;;;;5036942;28;20024;-90
2024/03/03 04:32:40;;;;;;;51.38;20.85;;;10.10;99.90;;;;;;5036997;28;20028;-89
2024/03/03 04:35:07;;;;;;;49.63;19.58;;;10.10;99.90;;;;;;5034492;28;20174;-90
2024/03/03 04:37:33;;;;;;;50.95;20.20;;;10.10;99.90;;;;;;5029032;28;20048;-88
2024/03/03 04:39:59;;;;;;;49.17;21.25;;;10.10;99.90;;;;;;5036408;28;20026;-89
2024/03/03 04:42:24;;;;;;;50.30;20.80;;;10.10;99.90;;;;;;5034828;28;20387;-90
2024/03/03 04:44:50;;;;;;;52.17;20.70;;;10.10;99.90;;;;;;5035639;28;20590;-90
2024/03/03 04:47:15;;;;;;;46.75;19.83;;;10.00;99.90;;;;;;5025280;28;20084;-91
2024/03/03 04:49:41;;;;;;;45.65;18.40;;;10.10;99.90;;;;;;5037265;28;20017;-89
2024/03/03 04:52:07;;;;;;;47.55;19.58;;;10.10;99.90;;;;;;5036036;28;20014;-90
2024/03/03 04:54:33;;;;;;;53.38;21.20;;;10.10;99.90;;;;;;5036495;28;20017;-89
2024/03/03 04:57:00;;;;;;;52.10;20.70;;;10.10;99.90;;;;;;5038559;28;20574;-90
2024/03/03 04:59:26;;;;;;;51.60;19.90;;;10.10;99.90;;;;;;5035950;28;20024;-90
2024/03/03 05:01:51;;;;;;;44.95;18.65;;;10.10;99.90;;;;;;5036899;28;20018;-90
2024/03/03 05:04:17;;;;;;;52.72;20.35;;;10.10;99.90;;;;;;5032617;28;20037;-89
2024/03/03 05:06:48;;;;;;;51.45;21.15;;;10.10;99.90;;;;;;5036698;28;20028;-88
2024/03/03 05:09:14;;;;;;;45.22;19.25;;;10.10;99.90;;;;;;5032670;28;20029;-90
2024/03/03 05:11:39;;;;;;;56.60;19.25;;;10.10;99.90;;;;;;5034406;28;20349;-90
2024/03/03 05:14:05;;;;;;;49.72;18.50;;;10.10;99.90;;;;;;5026418;28;20021;-91
2024/03/03 05:16:31;;;;;;;46.53;18.50;;;10.10;99.90;;;;;;5026227;28;20471;-90
2024/03/03 05:18:56;;;;;;;47.13;19.25;;;10.00;99.90;;;;;;5035385;28;20083;-87
2024/03/03 05:21:22;;;;;;;40.13;19.25;;;10.10;99.90;;;;;;5033240;28;20030;-88
2024/03/03 05:23:47;;;;;;;43.17;18.45;;;10.00;99.90;;;;;;5021804;28;20035;-89
2024/03/03 05:26:16;;;;;;;46.47;18.65;;;10.00;99.90;;;;;;5032491;28;20383;-89
2024/03/03 05:28:42;;;;;;;42.53;19.38;;;10.00;99.90;;;;;;5027832;28;20018;-89
2024/03/03 05:31:08;;;;;;;43.10;17.23;;;10.00;99.90;;;;;;5033384;28;20399;-89
2024/03/03 05:33:34;;;;;;;37.83;17.23;;;10.00;99.90;;;;;;5030068;28;20030;-88
2024/03/03 05:35:59;;;;;;;41.90;18.35;;;10.00;99.90;;;;;;5030424;28;20022;-88
2024/03/03 05:38:25;;;;;;;37.20;17.92;;;10.00;99.90;;;;;;5033116;28;20028;-88
2024/03/03 05:40:50;;;;;;;40.67;18.08;;;10.10;99.90;;;;;;5033323;28;20475;-88
2024/03/03 05:43:16;;;;;;;38.65;16.85;;;10.00;99.90;;;;;;5034142;28;20037;-88
2024/03/03 05:45:42;;;;;;;41.35;19.05;;;10.00;99.90;;;;;;5030855;28;20026;-89
2024/03/03 05:48:07;;;;;;;40.05;17.23;;;10.00;99.90;;;;;;5032922;28;20075;-88
2024/03/03 05:50:33;;;;;;;43.22;19.10;;;10.10;99.90;;;;;;5032102;28;20022;-88
2024/03/03 05:52:59;;;;;;;39.88;17.00;;;10.00;99.90;;;;;;5032603;28;20021;-88
2024/03/03 05:55:24;;;;;;;42.42;18.10;;;10.00;99.90;;;;;;5033468;28;20056;-88
2024/03/03 05:57:50;;;;;;;36.08;17.45;;;10.00;99.90;;;;;;5030813;28;20484;-88
2024/03/03 06:00:16;;;;;;;40.30;16.60;;;10.00;99.90;;;;;;5032932;28;20566;-88
2024/03/03 06:02:42;;;;;;;39.63;16.90;;;10.00;99.90;;;;;;5032432;28;20025;-88
2024/03/03 06:05:08;;;;;;;39.80;15.90;;;10.00;99.90;;;;;;5029964;28;20033;-88
2024/03/03 06:07:34;;;;;;;37.50;16.42;;;10.00;99.90;;;;;;5033553;28;20018;-90
2024/03/03 06:09:59;;;;;;;36.90;16.77;;;10.00;99.90;;;;;;5032840;28;20448;-88
2024/03/03 06:12:25;;;;;;;45.42;17.08;;;10.00;99.90;;;;;;5029273;28;20018;-89
2024/03/03 06:14:51;;;;;;;31.98;15.27;;;10.00;99.90;;;;;;5032533;28;20021;-88
2024/03/03 06:17:17;;;;;;;37.58;16.50;;;10.00;99.90;;;;;;5032051;28;20021;-89
2024/03/03 06:19:43;;;;;;;36.03;15.90;;;10.00;99.90;;;;;;5032535;28;20510;-89
2024/03/03 06:22:08;;;;;;;30.98;16.02;;;10.00;99.90;;;;;;5032629;28;20526;-87
2024/03/03 06:24:34;;;;;;;29.75;15.48;;;10.00;99.90;;;;;;5028935;28;20107;-89
2024/03/03 06:27:00;;;;;;;29.13;14.40;;;10.00;99.90;;;;;;5030357;28;20039;-89
2024/03/03 06:29:25;;;;;;;38.33;15.82;;;10.00;99.90;;;;;;5033216;28;20054;-89
2024/03/03 06:31:51;;;;;;;31.45;15.73;;;10.00;99.90;;;;;;5021142;28;20040;-89
2024/03/03 06:34:18;;;;;;;30.95;14.52;;;10.00;99.90;;;;;;5028852;28;20029;-89
2024/03/03 06:36:43;;;;;;;36.45;16.00;;;10.00;99.90;;;;;;5032048;28;20021;-89
2024/03/03 06:39:12;;;;;;;30.35;14.52;;;10.00;99.90;;;;;;5031797;28;20257;-89
2024/03/03 06:41:38;;;;;;;35.40;15.82;;;10.00;99.90;;;;;;5027323;28;20033;-89
2024/03/03 06:44:07;;;;;;;31.52;14.38;;;10.00;99.90;;;;;;5026138;28;20047;-88
2024/03/03 06:46:33;;;;;;;33.78;15.45;;;10.00;99.90;;;;;;5028336;28;20026;-89
2024/03/03 06:48:58;;;;;;;28.42;15.20;;;10.00;99.90;;;;;;5031493;28;20099;-88
2024/03/03 06:51:24;;;;;;;28.00;14.70;;;10.00;99.90;;;;;;5016621;28;20040;-89
2024/03/03 06:53:49;;;;;;;31.23;15.38;;;10.00;99.90;;;;;;5031745;28;20029;-89
2024/03/03 06:56:16;;;;;;;29.90;13.98;;;10.00;99.90;;;;;;5027401;28;20055;-89
2024/03/03 06:58:44;;;;;;;30.20;15.70;;;10.00;99.90;;;;;;5030911;28;20079;-89
2024/03/03 07:01:10;;;;;;;28.13;14.27;;;10.00;99.90;;;;;;5029037;28;20033;-89
2024/03/03 07:06:08;;;;;;;31.35;15.02;;;10.00;99.90;;;;;;5032789;28;20105;-89
2024/03/03 07:08:33;;;;;;;30.67;14.68;;;10.00;99.90;;;;;;5031377;28;20108;-89
2024/03/03 07:10:59;;;;;;;32.35;15.15;;;10.00;99.90;;;;;;5023448;28;20381;-88
2024/03/03 07:13:24;;;;;;;27.73;14.32;;;10.00;99.90;;;;;;5032446;28;20025;-87
2024/03/03 07:15:50;;;;;;;28.27;14.30;;;10.00;99.90;;;;;;5023750;28;20055;-88
2024/03/03 07:18:15;;;;;;;30.98;14.00;;;10.00;99.90;;;;;;5032462;28;20100;-89
2024/03/03 07:20:41;;;;;;;27.85;15.10;;;10.00;99.90;;;;;;5020710;28;20080;-89
2024/03/03 07:23:07;;;;;;;34.10;14.85;;;10.00;99.90;;;;;;5030395;28;20032;-89
2024/03/03 07:25:32;;;;;;;31.88;14.55;;;10.00;99.90;;;;;;5031240;28;20017;-89
2024/03/03 07:27:59;;;;;;;26.02;14.57;;;10.00;99.90;;;;;;5027977;28;20058;-87
2024/03/03 07:30:24;;;;;;;30.42;14.55;;;10.00;99.90;;;;;;5024284;28;20076;-89
2024/03/03 07:32:50;;;;;;;31.52;14.40;;;10.00;99.90;;;;;;5031056;28;20017;-88
2024/03/03 07:35:15;;;;;;;25.90;12.40;;;10.00;99.90;;;;;;5032413;28;20096;-89
2024/03/03 07:37:41;;;;;;;28.00;13.90;;;10.00;99.90;;;;;;5025169;28;20022;-89
2024/03/03 07:40:08;;;;;;;27.58;13.52;;;10.00;99.90;;;;;;5024048;28;20065;-88
2024/03/03 07:42:34;;;;;;;31.60;13.70;;;10.00;99.90;;;;;;5030241;28;20025;-88
2024/03/03 07:44:59;;;;;;;23.73;12.10;;;10.00;99.90;;;;;;5030919;28;20036;-89
2024/03/03 07:47:25;;;;;;;26.55;13.65;;;10.00;99.90;;;;;;5026909;28;20022;-90
2024/03/03 07:49:50;;;;;;;26.23;13.40;;;10.00;99.90;;;;;;5031353;28;20030;-89
2024/03/03 07:52:16;;;;;;;21.23;12.30;;;10.00;99.90;;;;;;5029420;28;20050;-89
2024/03/03 07:54:41;;;;;;;21.55;11.70;;;10.00;99.90;;;;;;5029627;28;20087;-88
2024/03/03 07:57:07;;;;;;;22.33;11.63;;;10.00;99.90;;;;;;5030637;28;20400;-87
2024/03/03 07:59:33;;;;;;;22.40;11.43;;;10.00;99.90;;;;;;5027368;28;20540;-89
2024/03/03 08:01:58;;;;;;;19.38;10.93;;;10.00;99.90;;;;;;5021745;28;20049;-89
2024/03/03 08:04:24;;;;;;;19.73;11.18;;;10.00;99.90;;;;;;5024605;28;20562;-89
2024/03/03 08:06:50;;;;;;;25.67;11.95;;;10.00;99.90;;;;;;5027481;28;20096;-88
2024/03/03 08:09:15;;;;;;;23.80;11.60;;;10.00;99.90;;;;;;5023759;28;20500;-88
2024/03/03 08:11:41;;;;;;;22.23;10.40;;;10.00;99.90;;;;;;5029298;28;20036;-90
2024/03/03 08:14:07;;;;;;;25.50;12.40;;;10.00;99.90;;;;;;5029093;28;20024;-89
2024/03/03 08:16:34;;;;;;;23.77;11.82;;;10.00;99.90;;;;;;5030562;28;20116;-89
2024/03/03 08:18:59;;;;;;;26.33;12.20;;;10.00;99.90;;;;;;5023959;28;20029;-89
2024/03/03 08:21:25;;;;;;;21.25;12.02;;;10.00;99.90;;;;;;5029289;28;20387;-89
2024/03/03 08:23:50;;;;;;;20.65;10.80;;;10.10;99.90;;;;;;5030721;28;20048;-88
2024/03/03 08:26:17;;;;;;;23.70;11.38;;;10.00;99.90;;;;;;5030659;28;20391;-89
2024/03/03 08:28:42;;;;;;;19.98;11.02;;;10.00;99.90;;;;;;5025672;28;20018;-88
2024/03/03 08:31:09;;;;;;;24.50;11.32;;;10.00;99.90;;;;;;5030717;28;20017;-89
2024/03/03 08:33:34;;;;;;;22.35;11.40;;;10.00;99.90;;;;;;5016438;28;20014;-89
2024/03/03 08:36:00;;;;;;;21.45;10.95;;;10.00;99.90;;;;;;5025574;28;20105;-88
2024/03/03 08:38:25;;;;;;;23.77;11.70;;;10.00;99.90;;;;;;5024485;28;20013;-89
2024/03/03 08:40:51;;;;;;;22.33;11.70;;;10.00;99.90;;;;;;5025683;28;20037;-88
2024/03/03 08:43:17;;;;;;;21.63;9.95;;;10.00;99.90;;;;;;5026769;28;20032;-88
2024/03/03 08:45:42;;;;;;;19.38;10.57;;;9.90;99.90;;;;;;5029251;28;20031;-89
2024/03/03 08:48:08;;;;;;;22.90;11.02;;;9.90;99.90;;;;;;5029697;28;20067;-89
2024/03/03 08:50:34;;;;;;;20.83;11.30;;;9.90;99.90;;;;;;5030410;28;20029;-88
2024/03/03 08:53:00;;;;;;;23.45;11.85;;;9.90;99.90;;;;;;5028425;28;20052;-87
2024/03/03 08:55:25;;;;;;;22.52;11.25;;;9.90;99.90;;;;;;5023398;28;20068;-89
2024/03/03 08:57:51;;;;;;;18.70;11.05;;;9.90;99.90;;;;;;5019868;28;20025;-89
2024/03/03 09:00:17;;;;;;;23.35;11.75;;;10.00;99.90;;;;;;5029953;28;20117;-88
2024/03/03 09:02:42;;;;;;;23.17;11.07;;;10.00;99.90;;;;;;5033922;28;20109;-88
2024/03/03 09:05:10;;;;;;;25.40;11.95;;;10.00;99.90;;;;;;5033949;28;20056;-89
2024/03/03 09:07:36;;;;;;;30.92;12.32;;;10.00;99.90;;;;;;5029504;28;20025;-88
2024/03/03 09:10:04;;;;;;;24.92;11.55;;;10.00;99.90;;;;;;5026140;28;20013;-90
2024/03/03 09:12:30;;;;;;;25.63;13.20;;;10.00;99.90;;;;;;5032750;28;20021;-89
2024/03/03 09:14:55;;;;;;;21.13;10.55;;;10.00;99.90;;;;;;5034134;28;20537;-89
2024/03/03 09:17:21;;;;;;;25.88;12.48;;;10.00;99.90;;;;;;5027838;28;20075;-90
2024/03/03 09:19:47;;;;;;;23.35;11.75;;;10.00;99.90;;;;;;5031778;28;20427;-89
2024/03/03 09:22:12;;;;;;;23.33;12.10;;;10.00;99.90;;;;;;5030295;28;20607;-89
2024/03/03 09:24:42;;;;;;;21.58;11.85;;;10.10;99.90;;;;;;5029575;28;20391;-88
2024/03/03 09:27:09;;;;;;;26.97;12.60;;;10.10;99.90;;;;;;5032584;28;20025;-89
2024/03/03 09:29:35;;;;;;;26.45;12.80;;;10.10;99.90;;;;;;5033283;28;20510;-89
2024/03/03 09:32:02;;;;;;;25.63;11.65;;;10.00;99.90;;;;;;5033493;28;20025;-89
2024/03/03 09:34:27;;;;;;;24.40;13.48;;;10.00;99.90;;;;;;5030449;28;20365;-88
2024/03/03 09:36:53;;;;;;;28.67;12.32;;;10.10;99.90;;;;;;5024322;28;20038;-88
2024/03/03 09:39:18;;;;;;;26.35;12.20;;;10.00;99.90;;;;;;5026560;28;20128;-89
2024/03/03 09:41:46;;;;;;;26.42;12.38;;;10.10;99.90;;;;;;5022336;28;20047;-88
2024/03/03 09:44:17;;;;;;;26.38;12.60;;;10.10;99.90;;;;;;5033059;28;20037;-88
2024/03/03 09:46:43;;;;;;;24.67;12.65;;;10.10;99.90;;;;;;5033344;28;20116;-88
2024/03/03 09:49:16;;;;;;;28.70;12.07;;;10.00;99.90;;;;;;5028010;28;20018;-88
2024/03/03 09:51:44;;;;;;;28.17;13.52;;;10.10;99.90;;;;;;5024593;28;20022;-88
2024/03/03 09:54:18;;;;;;;24.92;12.13;;;10.10;99.90;;;;;;5025760;28;20025;-89
2024/03/03 09:56:45;;;;;;;29.10;13.82;;;10.10;99.90;;;;;;5024606;28;20216;-88
2024/03/03 09:59:12;;;;;;;32.42;13.75;;;10.10;99.90;;;;;;5032721;28;20053;-89
2024/03/03 10:01:41;;;;;;;25.02;12.48;;;10.10;99.90;;;;;;5031058;28;20076;-89
2024/03/03 10:04:08;;;;;;;30.77;14.17;;;10.10;99.90;;;;;;5029735;28;20041;-89
2024/03/03 10:06:37;;;;;;;30.73;14.65;;;10.10;99.90;;;;;;5028198;28;20708;-88
2024/03/03 10:09:09;;;;;;;28.07;13.57;;;10.10;99.90;;;;;;5016704;28;20104;-89
2024/03/03 10:11:35;;;;;;;30.95;14.77;;;10.10;99.90;;;;;;5019542;28;20260;-90
2024/03/03 10:14:01;;;;;;;30.23;14.30;;;10.10;99.90;;;;;;5025973;28;20026;-89
2024/03/03 10:16:29;;;;;;;28.55;12.65;;;10.20;99.90;;;;;;5032656;28;20025;-89
2024/03/03 10:18:59;;;;;;;29.58;13.30;;;10.20;99.90;;;;;;5030985;28;20033;-89
2024/03/03 10:21:25;;;;;;;;;;;10.20;99.90;;;;;;5029787;28;20113;-88
2024/03/03 10:23:51;;;;;;;28.05;12.45;;;10.20;99.90;;;;;;5033616;28;19943;-89
2024/03/03 10:26:16;;;;;;;30.42;13.63;;;10.20;99.90;;;;;;5022842;28;20024;-90
2024/03/03 10:28:42;;;;;;;30.02;14.52;;;10.20;99.90;;;;;;5032245;28;20511;-89
2024/03/03 10:31:15;;;;;;;36.30;13.10;;;10.20;99.90;;;;;;5026186;28;20032;-89
2024/03/03 10:33:54;;;;;;;27.95;13.88;;;10.20;99.90;;;;;;5017809;28;20025;-88
2024/03/03 10:36:21;;;;;;;27.45;13.32;;;10.20;99.90;;;;;;5027620;28;20037;-89
2024/03/03 10:38:55;;;;;;;29.33;13.68;;;10.20;99.90;;;;;;5026844;28;20183;-88
2024/03/03 10:41:21;;;;;;;30.77;13.98;;;10.30;99.90;;;;;;5022820;28;20072;-89
2024/03/03 10:43:46;;;;;;;29.58;13.52;;;10.30;99.90;;;;;;5034767;28;20033;-91
2024/03/03 10:46:12;;;;;;;28.48;13.07;;;10.40;99.90;;;;;;5027460;28;20045;-90
2024/03/03 10:48:40;;;;;;;28.20;14.55;;;10.50;99.90;;;;;;5034293;28;20104;-90
2024/03/03 10:51:07;;;;;;;30.95;14.25;;;10.70;99.90;;;;;;5032469;28;20018;-90
2024/03/03 10:53:32;;;;;;;32.90;13.45;;;10.70;99.90;;;;;;5030306;28;20101;-91
2024/03/03 10:55:58;;;;;;;29.13;14.38;;;11.00;99.90;;;;;;5033934;28;20041;-89
2024/03/03 10:58:26;;;;;;;34.15;14.30;;;11.30;99.90;;;;;;5034712;28;20546;-89
2024/03/03 11:00:53;;;;;;;34.25;14.68;;;11.80;99.90;;;;;;5032129;28;20387;-89
2024/03/03 11:03:19;;;;;;;28.52;14.35;;;12.30;99.90;;;;;;5024632;28;20022;-91
2024/03/03 11:05:46;;;;;;;31.60;14.57;;;12.60;99.90;;;;;;5031156;28;20028;-90
2024/03/03 11:08:13;;;;;;;27.50;13.73;;;13.00;99.90;;;;;;5031064;28;20025;-89
2024/03/03 11:10:39;;;;;;;34.28;14.32;;;13.10;99.90;;;;;;5028000;28;20005;-89
2024/03/03 11:13:06;;;;;;;27.50;13.63;;;13.30;99.90;;;;;;5029861;28;20395;-89
2024/03/03 11:15:35;;;;;;;31.02;13.15;;;13.40;99.90;;;;;;5029353;28;20048;-90
2024/03/03 11:18:04;;;;;;;35.72;13.90;;;13.40;99.90;;;;;;5032499;28;20028;-89
2024/03/03 11:20:37;;;;;;;29.17;14.57;;;13.30;99.90;;;;;;5018316;28;20022;-92
2024/03/03 11:23:26;;;;;;;30.88;15.25;;;13.40;99.90;;;;;;5021873;28;20025;-90
2024/03/03 11:26:07;;;;;;;30.52;13.50;;;13.30;99.90;;;;;;5022314;28;20026;-89
2024/03/03 11:28:34;;;;;;;31.50;13.55;;;13.30;99.90;;;;;;5032214;28;20025;-90
2024/03/03 11:31:00;;;;;;;35.95;14.13;;;13.50;99.90;;;;;;5033148;28;20026;-90
2024/03/03 11:33:27;;;;;;;38.53;15.85;;;13.50;99.90;;;;;;5025160;28;20018;-93
2024/03/03 11:35:54;;;;;;;31.90;13.20;;;13.60;99.90;;;;;;5016749;28;20030;-90
2024/03/03 11:38:20;;;;;;;28.00;12.65;;;13.70;99.90;;;;;;5031848;28;20468;-92
2024/03/03 11:40:46;;;;;;;27.65;13.60;;;13.60;99.90;;;;;;5035371;28;20113;-89
2024/03/03 11:43:11;;;;;;;29.85;14.43;;;13.40;99.90;;;;;;5022120;28;20056;-90
2024/03/03 11:45:48;;;;;;;28.02;13.05;;;13.30;99.90;;;;;;5029345;28;20032;-92
2024/03/03 11:48:14;;;;;;;36.50;13.48;;;13.10;99.90;;;;;;5029491;28;20028;-90
2024/03/03 11:50:40;;;;;;;29.83;13.73;;;12.90;99.90;;;;;;5033304;28;20588;-91
2024/03/03 11:53:06;;;;;;;29.85;13.43;;;12.90;99.90;;;;;;5031656;28;20033;-90
2024/03/03 11:55:35;;;;;;;30.67;14.35;;;12.80;99.90;;;;;;5031956;28;20383;-90
2024/03/03 11:58:02;;;;;;;32.92;14.13;;;12.70;99.90;;;;;;5032341;28;20108;-89
2024/03/03 12:00:29;;;;;;;32.63;13.75;;;12.70;99.90;;;;;;5031726;28;20091;-92
2024/03/03 12:02:56;;;;;;;37.08;13.68;;;12.80;99.90;;;;;;5030562;28;20022;-88
2024/03/03 12:05:22;;;;;;;32.38;14.18;;;12.70;99.90;;;;;;5030766;28;20460;-89
2024/03/03 12:07:49;;;;;;;32.42;14.65;;;12.60;99.90;;;;;;5032186;28;20032;-89
2024/03/03 12:10:23;;;;;;;28.80;14.30;;;12.60;99.90;;;;;;5026022;28;20120;-91
2024/03/03 12:12:54;;;;;;;34.42;15.68;;;12.50;99.90;;;;;;5029617;28;20018;-89
2024/03/03 12:15:22;;;;;;;35.45;15.02;;;12.50;99.90;;;;;;5031548;28;20528;-88
2024/03/03 12:17:53;;;;;;;31.42;14.60;;;12.50;99.90;;;;;;5027906;28;20104;-89
2024/03/03 12:20:22;;;;;;;34.78;14.95;;;12.40;99.90;;;;;;5031454;28;20020;-92
2024/03/03 12:22:49;;;;;;;36.88;16.02;;;12.40;99.90;;;;;;5038831;28;20065;-89
2024/03/03 12:25:17;;;;;;;33.38;14.50;;;12.20;99.90;;;;;;5030625;28;20025;-90
2024/03/03 12:27:52;;;;;;;33.22;14.45;;;12.10;99.90;;;;;;5024526;28;20032;-89